sensor_id;sensor_type;location;lat;lon;timestamp;P1;durP1;ratioP1;P2;durP2;ratioP2
39890;SDS011;25564;53.312;9.790;2023-07-31T00:01:39;2.57;;;1.40;;
39890;SDS011;25564;53.312;9.790;2023-07-31T00:04:10;3.73;;;1.33;;
39890;SDS011;25564;53.312;9.790;2023-07-31T00:06:42;5.13;;;1.40;;
39890;SDS011;25564;53.312;9.790;2023-07-31T00:09:13;3.50;;;1.13;;
39890;SDS011;25564;53.312;9.790;2023-07-31T00:11:45;4.97;;;1.87;;
39890;SDS011;25564;53.312;9.790;2023-07-31T00:14:16;3.60;;;1.60;;
39890;SDS011;25564;53.312;9.790;2023-07-31T00:16:48;3.90;;;1.73;;
39890;SDS011;25564;53.312;9.790;2023-07-31T00:19:22;4.33;;;1.47;;
39890;SDS011;25564;53.312;9.790;2023-07-31T00:21:54;5.07;;;1.93;;
39890;SDS011;25564;53.312;9.790;2023-07-31T00:24:25;6.40;;;1.27;;
39890;SDS011;25564;53.312;9.790;2023-07-31T00:26:57;5.57;;;1.53;;
39890;SDS011;25564;53.312;9.790;2023-07-31T00:29:28;6.37;;;1.63;;
39890;SDS011;25564;53.312;9.790;2023-07-31T00:32:00;5.63;;;1.13;;
39890;SDS011;25564;53.312;9.790;2023-07-31T00:34:31;3.60;;;1.40;;
39890;SDS011;25564;53.312;9.790;2023-07-31T00:37:02;5.57;;;1.73;;
39890;SDS011;25564;53.312;9.790;2023-07-31T00:39:34;5.40;;;1.73;;
39890;SDS011;25564;53.312;9.790;2023-07-31T00:42:06;7.30;;;1.53;;
39890;SDS011;25564;53.312;9.790;2023-07-31T00:44:37;4.20;;;1.70;;
39890;SDS011;25564;53.312;9.790;2023-07-31T00:47:09;2.87;;;1.60;;
39890;SDS011;25564;53.312;9.790;2023-07-31T00:49:40;3.27;;;1.50;;
39890;SDS011;25564;53.312;9.790;2023-07-31T00:52:12;12.80;;;2.13;;
39890;SDS011;25564;53.312;9.790;2023-07-31T00:54:44;5.57;;;1.80;;
39890;SDS011;25564;53.312;9.790;2023-07-31T00:57:15;4.77;;;1.70;;
39890;SDS011;25564;53.312;9.790;2023-07-31T00:59:47;5.57;;;1.83;;
39890;SDS011;25564;53.312;9.790;2023-07-31T01:02:18;4.87;;;1.83;;
39890;SDS011;25564;53.312;9.790;2023-07-31T01:04:50;4.93;;;1.80;;
39890;SDS011;25564;53.312;9.790;2023-07-31T01:07:35;5.13;;;1.60;;
39890;SDS011;25564;53.312;9.790;2023-07-31T01:10:23;8.03;;;2.40;;
39890;SDS011;25564;53.312;9.790;2023-07-31T01:12:58;4.17;;;1.60;;
39890;SDS011;25564;53.312;9.790;2023-07-31T01:15:30;4.57;;;1.70;;
39890;SDS011;25564;53.312;9.790;2023-07-31T01:18:01;4.20;;;1.73;;
39890;SDS011;25564;53.312;9.790;2023-07-31T01:20:33;7.27;;;2.17;;
39890;SDS011;25564;53.312;9.790;2023-07-31T01:23:26;3.30;;;1.57;;
39890;SDS011;25564;53.312;9.790;2023-07-31T01:31:29;3.77;;;1.90;;
39890;SDS011;25564;53.312;9.790;2023-07-31T01:34:01;10.90;;;2.13;;
39890;SDS011;25564;53.312;9.790;2023-07-31T01:36:33;7.03;;;1.83;;
39890;SDS011;25564;53.312;9.790;2023-07-31T01:39:04;6.23;;;2.03;;
39890;SDS011;25564;53.312;9.790;2023-07-31T01:41:36;8.13;;;1.97;;
39890;SDS011;25564;53.312;9.790;2023-07-31T01:44:07;3.83;;;1.90;;
39890;SDS011;25564;53.312;9.790;2023-07-31T01:46:39;5.67;;;2.27;;
39890;SDS011;25564;53.312;9.790;2023-07-31T01:49:11;5.03;;;1.83;;
39890;SDS011;25564;53.312;9.790;2023-07-31T01:51:42;6.57;;;1.80;;
39890;SDS011;25564;53.312;9.790;2023-07-31T01:54:13;4.40;;;1.80;;
39890;SDS011;25564;53.312;9.790;2023-07-31T01:56:45;3.33;;;1.70;;
39890;SDS011;25564;53.312;9.790;2023-07-31T01:59:16;9.10;;;2.43;;
39890;SDS011;25564;53.312;9.790;2023-07-31T02:01:48;5.20;;;1.77;;
39890;SDS011;25564;53.312;9.790;2023-07-31T02:04:20;5.73;;;1.80;;
39890;SDS011;25564;53.312;9.790;2023-07-31T02:06:52;6.70;;;2.67;;
39890;SDS011;25564;53.312;9.790;2023-07-31T02:09:24;8.57;;;2.30;;
39890;SDS011;25564;53.312;9.790;2023-07-31T02:11:55;13.27;;;2.63;;
39890;SDS011;25564;53.312;9.790;2023-07-31T02:14:27;6.37;;;2.37;;
39890;SDS011;25564;53.312;9.790;2023-07-31T02:16:58;9.17;;;2.57;;
39890;SDS011;25564;53.312;9.790;2023-07-31T02:19:29;6.47;;;2.20;;
39890;SDS011;25564;53.312;9.790;2023-07-31T02:22:01;6.13;;;1.70;;
39890;SDS011;25564;53.312;9.790;2023-07-31T02:24:32;3.33;;;1.83;;
39890;SDS011;25564;53.312;9.790;2023-07-31T02:27:04;4.57;;;1.90;;
39890;SDS011;25564;53.312;9.790;2023-07-31T02:29:35;5.13;;;2.20;;
39890;SDS011;25564;53.312;9.790;2023-07-31T02:32:07;10.07;;;2.53;;
39890;SDS011;25564;53.312;9.790;2023-07-31T02:34:38;5.17;;;1.90;;
39890;SDS011;25564;53.312;9.790;2023-07-31T02:37:10;4.20;;;1.73;;
39890;SDS011;25564;53.312;9.790;2023-07-31T02:39:41;4.57;;;1.83;;
39890;SDS011;25564;53.312;9.790;2023-07-31T02:42:12;6.53;;;1.80;;
39890;SDS011;25564;53.312;9.790;2023-07-31T02:44:44;3.57;;;2.00;;
39890;SDS011;25564;53.312;9.790;2023-07-31T02:47:16;5.47;;;1.70;;
39890;SDS011;25564;53.312;9.790;2023-07-31T02:49:47;6.73;;;1.87;;
39890;SDS011;25564;53.312;9.790;2023-07-31T02:52:18;4.47;;;1.67;;
39890;SDS011;25564;53.312;9.790;2023-07-31T02:54:50;4.63;;;1.90;;
39890;SDS011;25564;53.312;9.790;2023-07-31T02:57:22;6.40;;;2.10;;
39890;SDS011;25564;53.312;9.790;2023-07-31T02:59:53;3.60;;;1.83;;
39890;SDS011;25564;53.312;9.790;2023-07-31T03:02:25;4.47;;;1.87;;
39890;SDS011;25564;53.312;9.790;2023-07-31T03:04:56;8.83;;;2.50;;
39890;SDS011;25564;53.312;9.790;2023-07-31T03:07:28;4.27;;;1.90;;
39890;SDS011;25564;53.312;9.790;2023-07-31T03:10:01;4.70;;;1.93;;
39890;SDS011;25564;53.312;9.790;2023-07-31T03:12:32;5.60;;;2.17;;
39890;SDS011;25564;53.312;9.790;2023-07-31T03:15:04;4.17;;;2.60;;
39890;SDS011;25564;53.312;9.790;2023-07-31T03:17:36;4.30;;;2.20;;
39890;SDS011;25564;53.312;9.790;2023-07-31T03:20:07;6.80;;;2.40;;
39890;SDS011;25564;53.312;9.790;2023-07-31T03:22:39;4.53;;;2.50;;
39890;SDS011;25564;53.312;9.790;2023-07-31T03:25:11;9.70;;;3.27;;
39890;SDS011;25564;53.312;9.790;2023-07-31T03:27:43;6.63;;;2.33;;
39890;SDS011;25564;53.312;9.790;2023-07-31T03:30:15;6.83;;;3.07;;
39890;SDS011;25564;53.312;9.790;2023-07-31T03:32:46;7.40;;;3.03;;
39890;SDS011;25564;53.312;9.790;2023-07-31T03:35:18;5.60;;;3.20;;
39890;SDS011;25564;53.312;9.790;2023-07-31T03:37:49;7.67;;;3.10;;
39890;SDS011;25564;53.312;9.790;2023-07-31T03:40:20;6.40;;;3.20;;
39890;SDS011;25564;53.312;9.790;2023-07-31T03:42:52;5.47;;;3.07;;
39890;SDS011;25564;53.312;9.790;2023-07-31T03:45:24;4.73;;;2.43;;
39890;SDS011;25564;53.312;9.790;2023-07-31T03:47:55;4.07;;;2.73;;
39890;SDS011;25564;53.312;9.790;2023-07-31T03:50:27;10.10;;;2.77;;
39890;SDS011;25564;53.312;9.790;2023-07-31T03:52:58;6.57;;;3.13;;
39890;SDS011;25564;53.312;9.790;2023-07-31T03:55:30;8.57;;;3.07;;
39890;SDS011;25564;53.312;9.790;2023-07-31T03:58:01;4.80;;;2.77;;
39890;SDS011;25564;53.312;9.790;2023-07-31T04:00:33;5.87;;;3.07;;
39890;SDS011;25564;53.312;9.790;2023-07-31T04:03:04;9.33;;;3.30;;
39890;SDS011;25564;53.312;9.790;2023-07-31T04:05:37;4.90;;;2.80;;
39890;SDS011;25564;53.312;9.790;2023-07-31T04:08:09;4.97;;;3.00;;
39890;SDS011;25564;53.312;9.790;2023-07-31T04:10:41;6.43;;;3.27;;
39890;SDS011;25564;53.312;9.790;2023-07-31T04:13:12;5.73;;;3.27;;
39890;SDS011;25564;53.312;9.790;2023-07-31T04:15:47;4.90;;;2.93;;
39890;SDS011;25564;53.312;9.790;2023-07-31T04:18:21;6.57;;;3.33;;
39890;SDS011;25564;53.312;9.790;2023-07-31T04:20:53;7.00;;;4.07;;
39890;SDS011;25564;53.312;9.790;2023-07-31T04:23:25;5.57;;;3.57;;
39890;SDS011;25564;53.312;9.790;2023-07-31T04:25:56;4.80;;;3.10;;
39890;SDS011;25564;53.312;9.790;2023-07-31T04:28:28;5.70;;;3.37;;
39890;SDS011;25564;53.312;9.790;2023-07-31T04:30:59;5.07;;;3.20;;
39890;SDS011;25564;53.312;9.790;2023-07-31T04:33:31;6.13;;;3.57;;
39890;SDS011;25564;53.312;9.790;2023-07-31T04:36:02;6.17;;;3.27;;
39890;SDS011;25564;53.312;9.790;2023-07-31T04:38:34;5.83;;;4.00;;
39890;SDS011;25564;53.312;9.790;2023-07-31T04:41:07;7.00;;;3.80;;
39890;SDS011;25564;53.312;9.790;2023-07-31T04:43:39;6.80;;;3.40;;
39890;SDS011;25564;53.312;9.790;2023-07-31T04:46:11;4.63;;;3.13;;
39890;SDS011;25564;53.312;9.790;2023-07-31T04:48:42;7.70;;;3.43;;
39890;SDS011;25564;53.312;9.790;2023-07-31T04:51:14;5.73;;;3.20;;
39890;SDS011;25564;53.312;9.790;2023-07-31T04:53:45;5.37;;;3.53;;
39890;SDS011;25564;53.312;9.790;2023-07-31T04:56:17;4.63;;;3.20;;
39890;SDS011;25564;53.312;9.790;2023-07-31T04:58:48;5.10;;;3.47;;
39890;SDS011;25564;53.312;9.790;2023-07-31T05:01:19;4.87;;;3.50;;
39890;SDS011;25564;53.312;9.790;2023-07-31T05:03:51;7.10;;;3.40;;
39890;SDS011;25564;53.312;9.790;2023-07-31T05:06:22;9.03;;;3.90;;
39890;SDS011;25564;53.312;9.790;2023-07-31T05:08:54;7.93;;;3.53;;
39890;SDS011;25564;53.312;9.790;2023-07-31T05:11:26;7.63;;;3.70;;
39890;SDS011;25564;53.312;9.790;2023-07-31T05:13:57;9.73;;;3.90;;
39890;SDS011;25564;53.312;9.790;2023-07-31T05:16:28;10.07;;;3.40;;
39890;SDS011;25564;53.312;9.790;2023-07-31T05:19:01;6.93;;;3.77;;
39890;SDS011;25564;53.312;9.790;2023-07-31T05:21:32;5.68;;;3.35;;
39890;SDS011;25564;53.312;9.790;2023-07-31T05:24:04;6.07;;;3.63;;
39890;SDS011;25564;53.312;9.790;2023-07-31T05:26:36;7.07;;;3.63;;
39890;SDS011;25564;53.312;9.790;2023-07-31T05:29:09;5.50;;;3.50;;
39890;SDS011;25564;53.312;9.790;2023-07-31T05:31:40;4.83;;;3.20;;
39890;SDS011;25564;53.312;9.790;2023-07-31T05:34:12;6.37;;;3.70;;
39890;SDS011;25564;53.312;9.790;2023-07-31T05:36:43;4.63;;;3.03;;
39890;SDS011;25564;53.312;9.790;2023-07-31T05:39:15;6.23;;;3.53;;
39890;SDS011;25564;53.312;9.790;2023-07-31T05:41:46;7.07;;;3.57;;
39890;SDS011;25564;53.312;9.790;2023-07-31T05:44:18;5.90;;;3.80;;
39890;SDS011;25564;53.312;9.790;2023-07-31T05:46:49;5.00;;;3.30;;
39890;SDS011;25564;53.312;9.790;2023-07-31T05:49:21;6.10;;;3.42;;
39890;SDS011;25564;53.312;9.790;2023-07-31T05:51:52;5.60;;;3.10;;
39890;SDS011;25564;53.312;9.790;2023-07-31T05:54:24;5.63;;;3.07;;
39890;SDS011;25564;53.312;9.790;2023-07-31T05:56:55;4.90;;;3.00;;
39890;SDS011;25564;53.312;9.790;2023-07-31T05:59:27;4.38;;;2.78;;
39890;SDS011;25564;53.312;9.790;2023-07-31T06:01:59;4.60;;;2.83;;
39890;SDS011;25564;53.312;9.790;2023-07-31T06:04:30;4.10;;;2.77;;
39890;SDS011;25564;53.312;9.790;2023-07-31T06:07:02;3.85;;;2.00;;
39890;SDS011;25564;53.312;9.790;2023-07-31T06:09:34;3.83;;;2.03;;
39890;SDS011;25564;53.312;9.790;2023-07-31T06:12:06;3.67;;;2.20;;
39890;SDS011;25564;53.312;9.790;2023-07-31T06:14:37;3.97;;;2.35;;
39890;SDS011;25564;53.312;9.790;2023-07-31T06:17:09;3.72;;;2.30;;
39890;SDS011;25564;53.312;9.790;2023-07-31T06:19:40;3.40;;;2.55;;
39890;SDS011;25564;53.312;9.790;2023-07-31T06:22:11;3.33;;;2.17;;
39890;SDS011;25564;53.312;9.790;2023-07-31T06:24:43;4.50;;;2.38;;
39890;SDS011;25564;53.312;9.790;2023-07-31T06:27:15;4.43;;;2.28;;
39890;SDS011;25564;53.312;9.790;2023-07-31T06:29:46;4.55;;;1.95;;
39890;SDS011;25564;53.312;9.790;2023-07-31T06:32:19;2.83;;;1.90;;
39890;SDS011;25564;53.312;9.790;2023-07-31T06:34:50;2.30;;;1.90;;
39890;SDS011;25564;53.312;9.790;2023-07-31T06:37:22;2.80;;;1.63;;
39890;SDS011;25564;53.312;9.790;2023-07-31T06:39:53;2.70;;;1.70;;
39890;SDS011;25564;53.312;9.790;2023-07-31T06:42:24;2.70;;;1.77;;
39890;SDS011;25564;53.312;9.790;2023-07-31T06:44:56;2.97;;;1.50;;
39890;SDS011;25564;53.312;9.790;2023-07-31T06:47:27;3.28;;;1.77;;
39890;SDS011;25564;53.312;9.790;2023-07-31T06:49:59;4.57;;;1.60;;
39890;SDS011;25564;53.312;9.790;2023-07-31T06:52:31;3.47;;;1.45;;
39890;SDS011;25564;53.312;9.790;2023-07-31T06:55:20;2.10;;;1.48;;
39890;SDS011;25564;53.312;9.790;2023-07-31T06:57:53;2.38;;;1.45;;
39890;SDS011;25564;53.312;9.790;2023-07-31T07:00:26;2.28;;;1.40;;
39890;SDS011;25564;53.312;9.790;2023-07-31T07:02:58;2.20;;;1.20;;
39890;SDS011;25564;53.312;9.790;2023-07-31T07:05:30;1.70;;;1.25;;
39890;SDS011;25564;53.312;9.790;2023-07-31T07:08:02;1.70;;;1.10;;
39890;SDS011;25564;53.312;9.790;2023-07-31T07:10:33;2.67;;;1.05;;
39890;SDS011;25564;53.312;9.790;2023-07-31T07:13:05;2.25;;;0.98;;
39890;SDS011;25564;53.312;9.790;2023-07-31T07:15:36;2.42;;;1.20;;
39890;SDS011;25564;53.312;9.790;2023-07-31T07:18:07;2.40;;;1.35;;
39890;SDS011;25564;53.312;9.790;2023-07-31T07:20:39;2.60;;;0.95;;
39890;SDS011;25564;53.312;9.790;2023-07-31T07:23:10;2.15;;;1.00;;
39890;SDS011;25564;53.312;9.790;2023-07-31T07:25:43;2.03;;;1.02;;
39890;SDS011;25564;53.312;9.790;2023-07-31T07:28:16;1.45;;;0.93;;
39890;SDS011;25564;53.312;9.790;2023-07-31T07:30:51;2.72;;;1.40;;
39890;SDS011;25564;53.312;9.790;2023-07-31T07:33:25;3.47;;;0.90;;
39890;SDS011;25564;53.312;9.790;2023-07-31T07:35:59;1.58;;;1.17;;
39890;SDS011;25564;53.312;9.790;2023-07-31T07:38:32;0.95;;;0.70;;
39890;SDS011;25564;53.312;9.790;2023-07-31T07:41:03;1.27;;;0.80;;
39890;SDS011;25564;53.312;9.790;2023-07-31T07:43:35;1.38;;;0.85;;
39890;SDS011;25564;53.312;9.790;2023-07-31T07:46:06;1.15;;;0.82;;
39890;SDS011;25564;53.312;9.790;2023-07-31T07:48:38;1.05;;;0.73;;
39890;SDS011;25564;53.312;9.790;2023-07-31T07:51:09;1.08;;;0.90;;
39890;SDS011;25564;53.312;9.790;2023-07-31T07:53:40;0.95;;;0.70;;
39890;SDS011;25564;53.312;9.790;2023-07-31T07:56:12;0.80;;;0.70;;
39890;SDS011;25564;53.312;9.790;2023-07-31T07:58:43;1.60;;;0.70;;
39890;SDS011;25564;53.312;9.790;2023-07-31T08:01:15;1.23;;;0.70;;
39890;SDS011;25564;53.312;9.790;2023-07-31T08:03:47;0.82;;;0.57;;
39890;SDS011;25564;53.312;9.790;2023-07-31T08:06:18;1.08;;;0.52;;
39890;SDS011;25564;53.312;9.790;2023-07-31T08:08:50;0.95;;;0.60;;
39890;SDS011;25564;53.312;9.790;2023-07-31T08:11:22;1.00;;;0.73;;
39890;SDS011;25564;53.312;9.790;2023-07-31T08:13:54;0.77;;;0.55;;
39890;SDS011;25564;53.312;9.790;2023-07-31T08:16:26;0.57;;;0.40;;
39890;SDS011;25564;53.312;9.790;2023-07-31T08:18:58;1.10;;;0.60;;
39890;SDS011;25564;53.312;9.790;2023-07-31T08:21:30;0.50;;;0.43;;
39890;SDS011;25564;53.312;9.790;2023-07-31T08:24:02;0.73;;;0.40;;
39890;SDS011;25564;53.312;9.790;2023-07-31T08:26:34;1.48;;;0.38;;
39890;SDS011;25564;53.312;9.790;2023-07-31T08:29:05;1.83;;;0.35;;
39890;SDS011;25564;53.312;9.790;2023-07-31T08:31:37;1.40;;;0.65;;
39890;SDS011;25564;53.312;9.790;2023-07-31T08:34:08;0.40;;;0.30;;
39890;SDS011;25564;53.312;9.790;2023-07-31T08:36:40;0.70;;;0.40;;
39890;SDS011;25564;53.312;9.790;2023-07-31T08:39:12;0.35;;;0.30;;
39890;SDS011;25564;53.312;9.790;2023-07-31T08:41:43;0.25;;;0.25;;
39890;SDS011;25564;53.312;9.790;2023-07-31T08:44:15;0.30;;;0.30;;
39890;SDS011;25564;53.312;9.790;2023-07-31T08:46:48;0.13;;;0.13;;
39890;SDS011;25564;53.312;9.790;2023-07-31T08:49:20;0.20;;;0.20;;
39890;SDS011;25564;53.312;9.790;2023-07-31T08:51:53;0.70;;;0.47;;
39890;SDS011;25564;53.312;9.790;2023-07-31T08:54:25;0.30;;;0.30;;
39890;SDS011;25564;53.312;9.790;2023-07-31T08:57:02;0.45;;;0.30;;
39890;SDS011;25564;53.312;9.790;2023-07-31T08:59:36;0.30;;;0.30;;
39890;SDS011;25564;53.312;9.790;2023-07-31T09:02:11;0.85;;;0.52;;
39890;SDS011;25564;53.312;9.790;2023-07-31T09:04:44;2.65;;;0.60;;
39890;SDS011;25564;53.312;9.790;2023-07-31T09:07:17;1.70;;;0.82;;
39890;SDS011;25564;53.312;9.790;2023-07-31T09:09:48;3.35;;;1.88;;
39890;SDS011;25564;53.312;9.790;2023-07-31T09:12:20;2.08;;;1.23;;
39890;SDS011;25564;53.312;9.790;2023-07-31T09:14:51;3.30;;;1.85;;
39890;SDS011;25564;53.312;9.790;2023-07-31T09:17:29;3.33;;;1.70;;
39890;SDS011;25564;53.312;9.790;2023-07-31T09:20:15;6.45;;;1.95;;
39890;SDS011;25564;53.312;9.790;2023-07-31T09:22:50;3.80;;;2.25;;
39890;SDS011;25564;53.312;9.790;2023-07-31T09:25:23;11.80;;;2.85;;
39890;SDS011;25564;53.312;9.790;2023-07-31T09:27:57;5.63;;;2.90;;
39890;SDS011;25564;53.312;9.790;2023-07-31T09:30:30;6.95;;;3.67;;
39890;SDS011;25564;53.312;9.790;2023-07-31T09:33:03;8.45;;;3.63;;
39890;SDS011;25564;53.312;9.790;2023-07-31T09:35:38;10.13;;;4.03;;
39890;SDS011;25564;53.312;9.790;2023-07-31T09:38:12;12.13;;;4.03;;
39890;SDS011;25564;53.312;9.790;2023-07-31T09:40:48;12.05;;;4.50;;
39890;SDS011;25564;53.312;9.790;2023-07-31T09:43:20;13.55;;;4.78;;
39890;SDS011;25564;53.312;9.790;2023-07-31T09:45:56;12.00;;;4.38;;
39890;SDS011;25564;53.312;9.790;2023-07-31T09:48:30;12.93;;;4.07;;
39890;SDS011;25564;53.312;9.790;2023-07-31T09:51:03;12.65;;;4.40;;
39890;SDS011;25564;53.312;9.790;2023-07-31T09:53:36;15.77;;;5.78;;
39890;SDS011;25564;53.312;9.790;2023-07-31T09:56:08;9.68;;;4.55;;
39890;SDS011;25564;53.312;9.790;2023-07-31T09:58:39;15.80;;;4.80;;
39890;SDS011;25564;53.312;9.790;2023-07-31T10:01:11;16.38;;;5.28;;
39890;SDS011;25564;53.312;9.790;2023-07-31T10:03:43;13.50;;;5.72;;
39890;SDS011;25564;53.312;9.790;2023-07-31T10:06:16;13.23;;;5.25;;
39890;SDS011;25564;53.312;9.790;2023-07-31T10:08:51;11.02;;;4.85;;
39890;SDS011;25564;53.312;9.790;2023-07-31T10:11:24;8.57;;;5.22;;
39890;SDS011;25564;53.312;9.790;2023-07-31T10:13:58;14.43;;;5.28;;
39890;SDS011;25564;53.312;9.790;2023-07-31T10:16:30;14.88;;;4.97;;
39890;SDS011;25564;53.312;9.790;2023-07-31T10:19:02;11.65;;;3.85;;
39890;SDS011;25564;53.312;9.790;2023-07-31T10:21:35;12.02;;;4.82;;
39890;SDS011;25564;53.312;9.790;2023-07-31T10:24:08;15.07;;;4.30;;
39890;SDS011;25564;53.312;9.790;2023-07-31T10:26:40;10.60;;;4.45;;
39890;SDS011;25564;53.312;9.790;2023-07-31T10:29:15;11.47;;;4.73;;
39890;SDS011;25564;53.312;9.790;2023-07-31T10:31:48;11.85;;;5.30;;
39890;SDS011;25564;53.312;9.790;2023-07-31T10:34:22;9.23;;;4.32;;
39890;SDS011;25564;53.312;9.790;2023-07-31T10:40:07;10.88;;;4.53;;
39890;SDS011;25564;53.312;9.790;2023-07-31T10:45:37;12.13;;;3.83;;
39890;SDS011;25564;53.312;9.790;2023-07-31T10:48:14;12.90;;;3.90;;
39890;SDS011;25564;53.312;9.790;2023-07-31T10:50:48;9.18;;;3.67;;
39890;SDS011;25564;53.312;9.790;2023-07-31T10:55:58;7.57;;;3.78;;
39890;SDS011;25564;53.312;9.790;2023-07-31T10:58:43;10.13;;;5.10;;
39890;SDS011;25564;53.312;9.790;2023-07-31T11:01:15;12.82;;;3.90;;
39890;SDS011;25564;53.312;9.790;2023-07-31T11:03:47;8.25;;;3.65;;
39890;SDS011;25564;53.312;9.790;2023-07-31T11:06:20;4.88;;;2.60;;
39890;SDS011;25564;53.312;9.790;2023-07-31T11:08:52;8.07;;;3.00;;
39890;SDS011;25564;53.312;9.790;2023-07-31T11:11:23;5.30;;;3.15;;
39890;SDS011;25564;53.312;9.790;2023-07-31T11:13:55;8.52;;;2.70;;
39890;SDS011;25564;53.312;9.790;2023-07-31T11:16:27;6.78;;;2.35;;
39890;SDS011;25564;53.312;9.790;2023-07-31T11:18:58;7.32;;;2.78;;
39890;SDS011;25564;53.312;9.790;2023-07-31T11:21:30;5.57;;;2.35;;
39890;SDS011;25564;53.312;9.790;2023-07-31T11:24:01;3.70;;;2.45;;
39890;SDS011;25564;53.312;9.790;2023-07-31T11:26:33;4.22;;;2.67;;
39890;SDS011;25564;53.312;9.790;2023-07-31T11:29:10;4.03;;;2.28;;
39890;SDS011;25564;53.312;9.790;2023-07-31T11:31:43;4.38;;;2.15;;
39890;SDS011;25564;53.312;9.790;2023-07-31T11:34:14;4.97;;;2.00;;
39890;SDS011;25564;53.312;9.790;2023-07-31T11:36:53;4.78;;;1.90;;
39890;SDS011;25564;53.312;9.790;2023-07-31T11:39:26;4.15;;;1.63;;
39890;SDS011;25564;53.312;9.790;2023-07-31T11:41:58;4.97;;;2.13;;
39890;SDS011;25564;53.312;9.790;2023-07-31T11:44:38;3.05;;;1.42;;
39890;SDS011;25564;53.312;9.790;2023-07-31T11:47:12;2.95;;;1.30;;
39890;SDS011;25564;53.312;9.790;2023-07-31T11:49:43;3.65;;;1.50;;
39890;SDS011;25564;53.312;9.790;2023-07-31T11:52:15;4.20;;;1.35;;
39890;SDS011;25564;53.312;9.790;2023-07-31T11:54:47;2.30;;;1.23;;
39890;SDS011;25564;53.312;9.790;2023-07-31T11:57:18;3.00;;;1.23;;
39890;SDS011;25564;53.312;9.790;2023-07-31T11:59:51;4.35;;;1.00;;
39890;SDS011;25564;53.312;9.790;2023-07-31T12:02:23;2.33;;;1.33;;
39890;SDS011;25564;53.312;9.790;2023-07-31T12:04:55;2.55;;;1.30;;
39890;SDS011;25564;53.312;9.790;2023-07-31T12:07:27;2.13;;;1.20;;
39890;SDS011;25564;53.312;9.790;2023-07-31T12:10:23;1.63;;;1.10;;
39890;SDS011;25564;53.312;9.790;2023-07-31T12:13:02;3.10;;;1.20;;
39890;SDS011;25564;53.312;9.790;2023-07-31T12:15:36;1.80;;;1.33;;
39890;SDS011;25564;53.312;9.790;2023-07-31T12:18:10;1.98;;;1.05;;
39890;SDS011;25564;53.312;9.790;2023-07-31T12:20:47;1.42;;;0.80;;
39890;SDS011;25564;53.312;9.790;2023-07-31T12:23:25;2.47;;;1.10;;
39890;SDS011;25564;53.312;9.790;2023-07-31T12:26:05;2.10;;;1.10;;
39890;SDS011;25564;53.312;9.790;2023-07-31T12:28:45;2.45;;;1.08;;
39890;SDS011;25564;53.312;9.790;2023-07-31T12:31:19;1.40;;;0.95;;
39890;SDS011;25564;53.312;9.790;2023-07-31T12:33:53;3.05;;;1.30;;
39890;SDS011;25564;53.312;9.790;2023-07-31T12:36:24;1.25;;;0.82;;
39890;SDS011;25564;53.312;9.790;2023-07-31T12:38:56;1.45;;;1.00;;
39890;SDS011;25564;53.312;9.790;2023-07-31T12:41:29;2.85;;;1.00;;
39890;SDS011;25564;53.312;9.790;2023-07-31T12:44:01;3.78;;;1.10;;
39890;SDS011;25564;53.312;9.790;2023-07-31T12:46:33;2.28;;;1.10;;
39890;SDS011;25564;53.312;9.790;2023-07-31T12:49:04;1.50;;;1.00;;
39890;SDS011;25564;53.312;9.790;2023-07-31T12:51:36;1.17;;;0.80;;
39890;SDS011;25564;53.312;9.790;2023-07-31T12:54:07;1.42;;;0.90;;
39890;SDS011;25564;53.312;9.790;2023-07-31T12:56:39;1.55;;;1.00;;
39890;SDS011;25564;53.312;9.790;2023-07-31T12:59:12;2.20;;;1.00;;
39890;SDS011;25564;53.312;9.790;2023-07-31T13:01:43;1.23;;;0.80;;
39890;SDS011;25564;53.312;9.790;2023-07-31T13:04:15;1.63;;;0.77;;
39890;SDS011;25564;53.312;9.790;2023-07-31T13:06:46;1.45;;;0.90;;
39890;SDS011;25564;53.312;9.790;2023-07-31T13:09:18;1.27;;;0.80;;
39890;SDS011;25564;53.312;9.790;2023-07-31T13:11:49;1.58;;;1.00;;
39890;SDS011;25564;53.312;9.790;2023-07-31T13:14:21;1.58;;;1.10;;
39890;SDS011;25564;53.312;9.790;2023-07-31T13:16:52;1.23;;;0.85;;
39890;SDS011;25564;53.312;9.790;2023-07-31T13:19:24;0.70;;;0.50;;
39890;SDS011;25564;53.312;9.790;2023-07-31T13:21:55;3.85;;;0.80;;
39890;SDS011;25564;53.312;9.790;2023-07-31T13:24:27;1.33;;;1.00;;
39890;SDS011;25564;53.312;9.790;2023-07-31T13:26:59;2.83;;;0.80;;
39890;SDS011;25564;53.312;9.790;2023-07-31T13:29:31;1.20;;;0.75;;
39890;SDS011;25564;53.312;9.790;2023-07-31T13:32:03;1.63;;;0.90;;
39890;SDS011;25564;53.312;9.790;2023-07-31T13:34:35;1.05;;;0.63;;
39890;SDS011;25564;53.312;9.790;2023-07-31T13:37:06;0.73;;;0.63;;
39890;SDS011;25564;53.312;9.790;2023-07-31T13:39:38;2.80;;;1.23;;
39890;SDS011;25564;53.312;9.790;2023-07-31T13:42:10;1.15;;;0.80;;
39890;SDS011;25564;53.312;9.790;2023-07-31T13:44:43;0.82;;;0.70;;
39890;SDS011;25564;53.312;9.790;2023-07-31T13:47:15;1.45;;;0.80;;
39890;SDS011;25564;53.312;9.790;2023-07-31T13:49:46;2.75;;;0.88;;
39890;SDS011;25564;53.312;9.790;2023-07-31T13:52:18;1.02;;;0.70;;
39890;SDS011;25564;53.312;9.790;2023-07-31T13:54:52;1.38;;;0.70;;
39890;SDS011;25564;53.312;9.790;2023-07-31T13:57:23;1.25;;;0.70;;
39890;SDS011;25564;53.312;9.790;2023-07-31T13:59:55;1.17;;;1.00;;
39890;SDS011;25564;53.312;9.790;2023-07-31T14:02:26;2.97;;;1.38;;
39890;SDS011;25564;53.312;9.790;2023-07-31T14:04:58;2.20;;;1.35;;
39890;SDS011;25564;53.312;9.790;2023-07-31T14:07:31;1.88;;;1.25;;
39890;SDS011;25564;53.312;9.790;2023-07-31T14:10:03;2.75;;;1.42;;
39890;SDS011;25564;53.312;9.790;2023-07-31T14:12:36;1.95;;;0.90;;
39890;SDS011;25564;53.312;9.790;2023-07-31T14:15:13;2.85;;;1.55;;
39890;SDS011;25564;53.312;9.790;2023-07-31T14:17:45;2.25;;;1.35;;
39890;SDS011;25564;53.312;9.790;2023-07-31T14:20:17;3.60;;;1.73;;
39890;SDS011;25564;53.312;9.790;2023-07-31T14:22:50;3.03;;;1.45;;
39890;SDS011;25564;53.312;9.790;2023-07-31T14:25:22;3.10;;;1.40;;
39890;SDS011;25564;53.312;9.790;2023-07-31T14:27:54;5.88;;;3.30;;
39890;SDS011;25564;53.312;9.790;2023-07-31T14:30:25;3.78;;;2.50;;
39890;SDS011;25564;53.312;9.790;2023-07-31T14:32:57;4.25;;;2.67;;
39890;SDS011;25564;53.312;9.790;2023-07-31T14:35:38;3.28;;;1.92;;
39890;SDS011;25564;53.312;9.790;2023-07-31T14:38:10;4.03;;;2.08;;
39890;SDS011;25564;53.312;9.790;2023-07-31T14:40:42;3.95;;;1.60;;
39890;SDS011;25564;53.312;9.790;2023-07-31T14:43:13;4.90;;;2.00;;
39890;SDS011;25564;53.312;9.790;2023-07-31T14:45:45;3.22;;;1.90;;
39890;SDS011;25564;53.312;9.790;2023-07-31T14:48:17;3.88;;;1.75;;
39890;SDS011;25564;53.312;9.790;2023-07-31T14:50:49;3.08;;;1.80;;
39890;SDS011;25564;53.312;9.790;2023-07-31T14:53:20;3.13;;;1.75;;
39890;SDS011;25564;53.312;9.790;2023-07-31T14:55:52;3.58;;;2.17;;
39890;SDS011;25564;53.312;9.790;2023-07-31T14:58:24;5.45;;;2.17;;
39890;SDS011;25564;53.312;9.790;2023-07-31T15:00:56;3.92;;;1.77;;
39890;SDS011;25564;53.312;9.790;2023-07-31T15:03:28;3.22;;;1.95;;
39890;SDS011;25564;53.312;9.790;2023-07-31T15:05:59;3.05;;;2.03;;
39890;SDS011;25564;53.312;9.790;2023-07-31T15:08:31;3.00;;;1.98;;
39890;SDS011;25564;53.312;9.790;2023-07-31T15:11:03;3.53;;;2.13;;
39890;SDS011;25564;53.312;9.790;2023-07-31T15:13:36;3.70;;;2.25;;
39890;SDS011;25564;53.312;9.790;2023-07-31T15:16:08;3.83;;;2.30;;
39890;SDS011;25564;53.312;9.790;2023-07-31T15:18:39;4.22;;;2.47;;
39890;SDS011;25564;53.312;9.790;2023-07-31T15:21:11;4.35;;;2.50;;
39890;SDS011;25564;53.312;9.790;2023-07-31T15:23:42;4.07;;;2.10;;
39890;SDS011;25564;53.312;9.790;2023-07-31T15:26:14;7.55;;;3.60;;
39890;SDS011;25564;53.312;9.790;2023-07-31T15:28:49;5.38;;;3.13;;
39890;SDS011;25564;53.312;9.790;2023-07-31T15:31:26;5.75;;;2.67;;